createdAt,value
2022-08-17T00:01:53.246Z,14.68
2022-08-17T00:04:37.279Z,15.48
2022-08-17T00:07:15.292Z,16.83
2022-08-17T00:10:00.898Z,16.42
2022-08-17T00:12:45.269Z,14.73
2022-08-17T00:15:34.903Z,15.13
2022-08-17T00:19:06.139Z,15.63
2022-08-17T00:21:25.151Z,14.63
2022-08-17T00:23:56.250Z,16.70
2022-08-17T00:29:24.268Z,14.02
2022-08-17T00:33:12.432Z,15.18
2022-08-17T00:35:11.912Z,15.27
2022-08-17T00:37:57.872Z,15.93
2022-08-17T00:40:45.607Z,14.30
2022-08-17T00:43:42.265Z,16.33
2022-08-17T00:46:23.389Z,14.23
2022-08-17T00:49:12.619Z,17.15
2022-08-17T00:52:10.693Z,15.20
2022-08-17T00:54:55.181Z,15.27
2022-08-17T00:57:53.391Z,14.02
2022-08-17T01:00:36.319Z,14.65
2022-08-17T01:03:34.537Z,14.05
2022-08-17T01:06:09.551Z,13.23
2022-08-17T01:08:57.563Z,13.40
2022-08-17T01:11:39.046Z,13.15
2022-08-17T01:14:19.438Z,14.98
2022-08-17T01:16:58.345Z,13.02
2022-08-17T01:19:34.432Z,13.82
2022-08-17T01:22:32.631Z,13.77
2022-08-17T01:25:26.196Z,14.73
2022-08-17T01:28:07.233Z,13.98
2022-08-17T01:30:56.697Z,14.15
2022-08-17T01:33:40.451Z,14.25
2022-08-17T01:36:26.946Z,14.80
2022-08-17T01:39:04.303Z,14.60
2022-08-17T01:41:47.465Z,15.65
2022-08-17T01:44:24.413Z,17.85
2022-08-17T01:50:01.977Z,16.00
2022-08-17T01:52:46.551Z,16.25
2022-08-17T01:55:33.994Z,15.55
2022-08-17T01:58:17.851Z,13.60
2022-08-17T02:01:00.762Z,17.25
2022-08-17T02:03:59.209Z,14.80
2022-08-17T02:06:53.537Z,15.55
2022-08-17T02:09:30.233Z,14.02
2022-08-17T02:12:37.852Z,15.20
2022-08-17T02:15:21.217Z,14.43
2022-08-17T02:17:54.593Z,13.32
2022-08-17T02:23:21.300Z,13.80
2022-08-17T02:26:09.036Z,16.73
2022-08-17T02:29:01.800Z,15.80
2022-08-17T02:31:56.643Z,18.27
2022-08-17T02:34:29.306Z,16.85
2022-08-17T02:37:11.230Z,16.45
2022-08-17T02:39:59.041Z,13.65
2022-08-17T02:42:49.109Z,14.40
2022-08-17T02:45:37.151Z,15.02
2022-08-17T02:48:16.275Z,14.45
2022-08-17T02:51:11.292Z,14.50
2022-08-17T02:53:47.457Z,14.80
2022-08-17T02:56:29.288Z,13.93
2022-08-17T02:59:05.199Z,13.63
2022-08-17T03:01:44.957Z,13.27
2022-08-17T03:04:18.499Z,13.65
2022-08-17T03:06:54.298Z,13.60
2022-08-17T03:09:33.974Z,13.75
2022-08-17T03:12:25.617Z,13.88
2022-08-17T03:14:58.138Z,14.43
2022-08-17T03:17:48.271Z,15.02
2022-08-17T03:20:28.114Z,15.15
2022-08-17T03:23:14.846Z,14.40
2022-08-17T03:25:53.624Z,12.98
2022-08-17T03:28:40.032Z,21.95
2022-08-17T03:31:21.816Z,13.48
2022-08-17T03:34:01.097Z,13.50
2022-08-17T03:36:36.061Z,17.55
2022-08-17T03:39:22.333Z,14.23
2022-08-17T03:42:32.369Z,15.10
2022-08-17T03:45:39.221Z,15.55
2022-08-17T03:48:46.056Z,14.13
2022-08-17T03:51:42.904Z,15.15
2022-08-17T03:57:20.267Z,18.05
2022-08-17T03:59:58.154Z,19.50
2022-08-17T04:02:40.543Z,21.05
2022-08-17T04:05:27.279Z,16.40
2022-08-17T04:08:12.309Z,16.20
2022-08-17T04:11:01.271Z,17.13
2022-08-17T04:13:42.913Z,18.45
2022-08-17T04:16:34.916Z,21.23
2022-08-17T04:19:18.246Z,17.08
2022-08-17T04:21:59.395Z,17.17
2022-08-17T04:24:37.746Z,21.80
2022-08-17T04:27:27.507Z,17.73
2022-08-17T04:30:03.449Z,18.85
2022-08-17T04:33:05.147Z,20.95
2022-08-17T04:36:00.730Z,20.42
2022-08-17T04:38:45.129Z,24.75
2022-08-17T04:41:40.316Z,22.92
2022-08-17T04:44:30.406Z,28.10
2022-08-17T04:47:20.631Z,28.77
2022-08-17T04:50:07.687Z,30.98
2022-08-17T04:53:00.549Z,34.47
2022-08-17T04:55:36.235Z,30.05
2022-08-17T04:58:19.322Z,32.58
2022-08-17T05:00:56.843Z,30.17
2022-08-17T05:03:47.230Z,36.45
2022-08-17T05:06:22.135Z,27.75
2022-08-17T05:09:17.712Z,23.23
2022-08-17T05:11:50.841Z,18.45
2022-08-17T05:14:33.582Z,15.35
2022-08-17T05:17:20.311Z,14.05
2022-08-17T05:20:02.424Z,15.88
2022-08-17T05:22:51.577Z,14.77
2022-08-17T05:25:29.369Z,16.92
2022-08-17T05:28:12.292Z,13.23
2022-08-17T05:30:43.924Z,16.52
2022-08-17T05:33:21.104Z,11.90
2022-08-17T05:35:58.317Z,15.95
2022-08-17T05:38:35.301Z,12.80
2022-08-17T05:41:15.428Z,13.43
2022-08-17T05:43:57.291Z,13.93
2022-08-17T05:46:38.421Z,14.60
2022-08-17T05:49:17.927Z,11.50
2022-08-17T05:52:07.350Z,14.27
2022-08-17T05:55:05.581Z,13.65
2022-08-17T05:58:00.342Z,14.90
2022-08-17T06:00:56.066Z,9.80
2022-08-17T06:04:24.264Z,14.90
2022-08-17T06:07:32.949Z,12.07
2022-08-17T06:10:34.301Z,7.10
2022-08-17T06:13:23.262Z,6.97
2022-08-17T06:16:33.175Z,8.80
2022-08-17T06:19:49.247Z,9.25
2022-08-17T06:25:22.061Z,9.57
2022-08-17T06:28:29.319Z,13.35
2022-08-17T06:31:22.359Z,17.80
2022-08-17T06:34:04.638Z,7.88
2022-08-17T06:37:14.598Z,15.23
2022-08-17T06:43:05.940Z,9.38
2022-08-17T06:46:17.367Z,14.63
2022-08-17T06:49:29.147Z,8.15
2022-08-17T06:52:13.640Z,10.77
2022-08-17T06:55:18.057Z,6.97
2022-08-17T06:57:58.305Z,5.18
2022-08-17T07:00:43.300Z,5.53
2022-08-17T07:03:47.700Z,8.80
2022-08-17T07:06:26.331Z,8.30
2022-08-17T07:09:09.151Z,7.15
2022-08-17T07:12:11.483Z,7.13
2022-08-17T07:15:25.980Z,8.38
2022-08-17T07:20:40.815Z,6.15
2022-08-17T07:24:03.450Z,8.43
2022-08-17T07:26:36.294Z,12.48
2022-08-17T07:29:23.991Z,11.52
2022-08-17T07:32:29.632Z,6.70
2022-08-17T07:35:57.797Z,12.35
2022-08-17T07:38:57.280Z,15.20
2022-08-17T07:41:53.318Z,6.90
2022-08-17T07:44:37.326Z,5.43
2022-08-17T07:47:40.584Z,7.22
2022-08-17T07:50:39.260Z,8.57
2022-08-17T07:53:31.263Z,6.00
2022-08-17T07:56:08.615Z,9.15
2022-08-17T07:58:46.810Z,6.22
2022-08-17T08:01:27.868Z,8.07
2022-08-17T08:05:02.037Z,6.75
2022-08-17T08:08:08.661Z,5.95
2022-08-17T08:11:00.304Z,6.68
2022-08-17T08:13:43.253Z,10.15
2022-08-17T08:16:26.093Z,11.68
2022-08-17T08:19:11.815Z,8.75
2022-08-17T08:21:59.157Z,12.80
2022-08-17T08:24:58.252Z,9.30
2022-08-17T08:28:21.875Z,7.43
2022-08-17T08:31:24.491Z,11.27
2022-08-17T08:34:44.436Z,11.88
2022-08-17T08:37:37.974Z,18.80
2022-08-17T08:40:46.054Z,9.30
2022-08-17T08:43:52.850Z,13.95
2022-08-17T08:46:40.790Z,10.63
2022-08-17T08:50:01.270Z,9.70
2022-08-17T08:52:30.953Z,12.02
2022-08-17T08:55:20.685Z,8.63
2022-08-17T08:58:31.871Z,9.25
2022-08-17T09:01:38.547Z,6.90
2022-08-17T09:05:14.751Z,13.85
2022-08-17T09:08:29.990Z,6.72
2022-08-17T09:11:30.428Z,7.32
2022-08-17T09:14:28.662Z,9.98
2022-08-17T09:17:17.138Z,7.32
2022-08-17T09:20:27.343Z,7.38
2022-08-17T09:23:08.790Z,11.43
2022-08-17T09:26:06.032Z,8.85
2022-08-17T09:28:50.263Z,10.00
2022-08-17T09:31:48.950Z,9.73
2022-08-17T09:35:09.319Z,6.53
2022-08-17T09:38:14.083Z,6.60
2022-08-17T09:41:23.984Z,7.05
2022-08-17T09:44:23.192Z,6.97
2022-08-17T09:47:30.011Z,6.07
2022-08-17T09:50:55.328Z,8.07
2022-08-17T09:53:32.814Z,7.30
2022-08-17T09:56:42.336Z,10.95
2022-08-17T09:59:35.949Z,7.65
2022-08-17T10:02:25.319Z,6.93
2022-08-17T10:05:34.200Z,6.95
2022-08-17T10:08:25.862Z,10.05
2022-08-17T10:11:45.734Z,13.80
2022-08-17T10:14:44.130Z,6.25
2022-08-17T10:17:41.673Z,7.60
2022-08-17T10:20:27.794Z,6.38
2022-08-17T10:23:29.515Z,8.60
2022-08-17T10:26:18.202Z,11.82
2022-08-17T10:28:58.783Z,11.50
2022-08-17T10:31:55.625Z,9.95
2022-08-17T10:34:42.851Z,8.05
2022-08-17T10:37:39.616Z,5.68
2022-08-17T10:40:30.980Z,5.70
2022-08-17T10:43:14.643Z,6.60
2022-08-17T10:46:10.443Z,8.60
2022-08-17T10:49:34.073Z,6.20
2022-08-17T10:52:27.321Z,4.97
2022-08-17T10:55:10.864Z,5.43
2022-08-17T10:57:49.571Z,5.80
2022-08-17T11:00:27.913Z,4.28
2022-08-17T11:03:04.992Z,10.38
2022-08-17T11:05:54.319Z,6.43
2022-08-17T11:09:03.000Z,8.18
2022-08-17T11:11:56.510Z,6.30
2022-08-17T11:15:07.223Z,5.72
2022-08-17T11:18:09.017Z,5.88
2022-08-17T11:21:06.079Z,5.95
2022-08-17T11:23:58.426Z,5.10
2022-08-17T11:26:41.645Z,7.90
2022-08-17T11:29:27.621Z,4.60
2022-08-17T11:32:37.073Z,6.82
2022-08-17T11:35:41.232Z,6.20
2022-08-17T11:38:46.230Z,6.68
2022-08-17T11:42:05.672Z,4.88
2022-08-17T11:45:31.737Z,5.20
2022-08-17T11:49:02.984Z,4.60
2022-08-17T11:52:05.086Z,4.90
2022-08-17T11:54:51.406Z,4.40
2022-08-17T11:58:09.727Z,4.78
2022-08-17T12:00:56.567Z,9.15
2022-08-17T12:03:54.671Z,8.35
2022-08-17T12:06:37.099Z,5.13
2022-08-17T12:09:26.468Z,4.95
2022-08-17T12:12:33.395Z,4.25
2022-08-17T12:15:19.720Z,8.40
2022-08-17T12:18:04.326Z,5.43
2022-08-17T12:20:56.501Z,8.50
2022-08-17T12:23:45.431Z,4.88
2022-08-17T12:26:22.762Z,3.97
2022-08-17T12:29:06.454Z,11.57
2022-08-17T12:32:02.339Z,4.32
2022-08-17T12:34:50.300Z,5.45
2022-08-17T12:37:28.161Z,4.53
2022-08-17T12:40:27.107Z,4.18
2022-08-17T12:43:12.333Z,4.28
2022-08-17T12:46:10.674Z,4.00
2022-08-17T12:48:55.081Z,5.05
2022-08-17T12:51:43.638Z,5.72
2022-08-17T12:55:06.231Z,5.60
2022-08-17T12:57:38.895Z,3.08
2022-08-17T13:00:20.092Z,4.57
2022-08-17T13:03:15.830Z,6.60
2022-08-17T13:06:09.592Z,4.07
2022-08-17T13:08:48.338Z,9.90
2022-08-17T13:11:24.907Z,8.57
2022-08-17T13:14:11.398Z,6.68
2022-08-17T13:16:58.020Z,5.47
2022-08-17T13:19:40.695Z,3.13
2022-08-17T13:25:09.223Z,3.90
2022-08-17T13:27:43.562Z,3.55
2022-08-17T13:30:23.997Z,7.78
2022-08-17T13:32:59.293Z,4.63
2022-08-17T13:36:08.191Z,7.72
2022-08-17T13:38:51.848Z,7.20
2022-08-17T13:41:36.765Z,4.45
2022-08-17T13:44:36.951Z,3.65
2022-08-17T13:47:23.477Z,3.72
2022-08-17T13:49:55.306Z,4.88
2022-08-17T13:52:48.784Z,5.47
2022-08-17T13:55:34.026Z,5.82
2022-08-17T13:58:12.378Z,4.03
2022-08-17T14:00:50.653Z,4.65
2022-08-17T14:03:20.923Z,4.30
2022-08-17T14:06:02.658Z,5.07
2022-08-17T14:08:39.663Z,5.80
2022-08-17T14:11:25.414Z,3.17
2022-08-17T14:13:55.317Z,3.90
2022-08-17T14:16:33.684Z,4.72
2022-08-17T14:19:11.603Z,4.00
2022-08-17T14:21:45.447Z,7.55
2022-08-17T14:24:25.727Z,5.78
2022-08-17T14:27:04.600Z,3.67
2022-08-17T14:29:42.573Z,5.07
2022-08-17T14:32:32.293Z,5.68
2022-08-17T14:35:13.320Z,5.78
2022-08-17T14:37:58.828Z,4.63
2022-08-17T14:40:41.081Z,3.42
2022-08-17T14:43:20.563Z,4.30
2022-08-17T14:45:56.204Z,3.85
2022-08-17T14:48:38.670Z,3.88
2022-08-17T14:51:13.794Z,6.20
2022-08-17T14:53:47.051Z,8.68
2022-08-17T14:56:31.691Z,3.63
2022-08-17T14:59:18.054Z,4.75
2022-08-17T15:01:53.804Z,6.40
2022-08-17T15:04:31.879Z,7.53
2022-08-17T15:07:09.059Z,9.23
2022-08-17T15:09:46.698Z,5.35
2022-08-17T15:12:34.795Z,6.10
2022-08-17T15:15:12.892Z,6.97
2022-08-17T15:17:46.004Z,5.05
2022-08-17T15:20:39.663Z,4.40
2022-08-17T15:25:58.287Z,2.63
2022-08-17T15:28:36.504Z,6.22
2022-08-17T15:31:09.453Z,2.95
2022-08-17T15:36:28.208Z,4.32
2022-08-17T15:39:06.204Z,12.85
2022-08-17T15:41:38.480Z,4.43
2022-08-17T15:44:18.925Z,4.45
2022-08-17T15:46:52.360Z,6.20
2022-08-17T15:49:39.098Z,4.00
2022-08-17T15:52:31.348Z,2.40
2022-08-17T15:55:09.540Z,4.47
2022-08-17T15:57:47.712Z,5.97
2022-08-17T16:00:24.364Z,6.38
2022-08-17T16:03:45.755Z,5.32
2022-08-17T16:05:59.254Z,5.32
2022-08-17T16:08:43.693Z,7.05
2022-08-17T16:11:26.064Z,3.42
2022-08-17T16:13:59.444Z,11.40
2022-08-17T16:16:42.680Z,6.18
2022-08-17T16:19:23.290Z,4.57
2022-08-17T16:22:02.256Z,5.60
2022-08-17T16:24:56.743Z,3.25
2022-08-17T16:27:35.176Z,6.43
2022-08-17T16:30:17.084Z,7.75
2022-08-17T16:32:58.518Z,6.07
2022-08-17T16:35:35.901Z,7.55
2022-08-17T16:38:12.524Z,6.18
2022-08-17T16:40:47.598Z,7.28
2022-08-17T16:43:25.610Z,2.58
2022-08-17T16:46:03.578Z,2.42
2022-08-17T16:48:38.661Z,8.07
2022-08-17T16:51:16.469Z,3.50
2022-08-17T16:53:59.173Z,4.60
2022-08-17T16:56:35.632Z,8.75
2022-08-17T16:59:41.853Z,7.45
2022-08-17T17:02:27.770Z,4.97
2022-08-17T17:05:31.158Z,7.63
2022-08-17T17:10:49.005Z,8.57
2022-08-17T17:13:35.077Z,5.35
2022-08-17T17:16:21.626Z,8.48
2022-08-17T17:19:16.793Z,6.40
2022-08-17T17:22:12.393Z,8.13
2022-08-17T17:25:11.951Z,7.13
2022-08-17T17:28:19.480Z,6.97
2022-08-17T17:31:09.329Z,7.53
2022-08-17T17:33:48.074Z,10.65
2022-08-17T17:36:25.567Z,6.70
2022-08-17T17:39:33.995Z,4.57
2022-08-17T17:42:14.616Z,7.28
2022-08-17T17:45:17.399Z,6.05
2022-08-17T17:47:53.626Z,11.32
2022-08-17T17:50:57.507Z,6.85
2022-08-17T17:53:50.340Z,5.88
2022-08-17T17:56:44.060Z,4.45
2022-08-17T17:59:49.182Z,9.88
2022-08-17T18:02:51.624Z,6.65
2022-08-17T18:05:51.722Z,8.30
2022-08-17T18:08:37.514Z,4.78
2022-08-17T18:11:42.414Z,8.98
2022-08-17T18:14:46.484Z,15.30
2022-08-17T18:17:22.665Z,30.60
2022-08-17T18:19:57.287Z,16.60
2022-08-17T18:22:31.425Z,19.88
2022-08-17T18:25:25.431Z,15.45
2022-08-17T18:28:14.587Z,62.33
2022-08-17T18:33:51.333Z,24.17
2022-08-17T18:36:42.168Z,31.15
2022-08-17T18:39:27.734Z,19.38
2022-08-17T18:42:06.300Z,14.90
2022-08-17T18:44:44.695Z,16.17
2022-08-17T18:47:27.632Z,12.55
2022-08-17T18:50:05.123Z,21.38
2022-08-17T18:52:55.277Z,24.73
2022-08-17T18:55:32.827Z,16.30
2022-08-17T18:58:20.734Z,20.38
2022-08-17T19:01:01.772Z,21.33
2022-08-17T19:03:50.359Z,12.77
2022-08-17T19:06:39.566Z,36.78
2022-08-17T19:09:34.721Z,10.48
2022-08-17T19:12:16.795Z,12.00
2022-08-17T19:14:56.284Z,21.88
2022-08-17T19:17:41.128Z,24.75
2022-08-17T19:20:21.876Z,13.80
2022-08-17T19:23:23.136Z,9.55
2022-08-17T19:26:05.810Z,14.18
2022-08-17T19:29:25.698Z,10.05
2022-08-17T19:32:06.293Z,13.45
2022-08-17T19:34:47.702Z,6.45
2022-08-17T19:37:47.471Z,11.02
2022-08-17T19:40:52.425Z,8.60
2022-08-17T19:43:56.269Z,13.38
2022-08-17T19:46:56.247Z,9.65
2022-08-17T19:49:58.743Z,10.10
2022-08-17T19:52:42.391Z,10.63
2022-08-17T19:55:39.637Z,10.45
2022-08-17T19:58:35.584Z,24.35
2022-08-17T20:01:17.051Z,21.83
2022-08-17T20:04:11.329Z,14.25
2022-08-17T20:06:57.303Z,13.20
2022-08-17T20:09:47.096Z,13.10
2022-08-17T20:12:26.265Z,11.23
2022-08-17T20:15:14.080Z,19.50
2022-08-17T20:17:53.259Z,18.30
2022-08-17T20:20:56.217Z,24.60
2022-08-17T20:23:54.956Z,18.95
2022-08-17T20:26:51.244Z,21.40
2022-08-17T20:29:56.139Z,12.48
2022-08-17T20:32:32.456Z,9.52
2022-08-17T20:35:26.067Z,16.25
2022-08-17T20:38:10.550Z,12.95
2022-08-17T20:41:03.154Z,11.30
2022-08-17T20:43:53.184Z,10.30
2022-08-17T20:47:05.830Z,8.38
2022-08-17T20:49:47.372Z,7.18
2022-08-17T20:53:19.388Z,7.00
2022-08-17T20:55:58.203Z,11.15
2022-08-17T20:58:37.108Z,11.75
2022-08-17T21:01:20.368Z,10.95
2022-08-17T21:03:55.336Z,8.07
2022-08-17T21:06:56.313Z,10.18
2022-08-17T21:09:41.968Z,7.88
2022-08-17T21:12:36.347Z,7.93
2022-08-17T21:15:25.151Z,7.53
2022-08-17T21:18:38.860Z,7.30
2022-08-17T21:21:48.896Z,10.00
2022-08-17T21:25:04.291Z,6.55
2022-08-17T21:28:03.670Z,7.35
2022-08-17T21:30:58.047Z,7.53
2022-08-17T21:33:44.322Z,9.63
2022-08-17T21:36:31.721Z,5.25
2022-08-17T21:39:30.635Z,8.77
2022-08-17T21:42:12.867Z,8.93
2022-08-17T21:45:01.020Z,8.68
2022-08-17T21:47:36.330Z,14.35
2022-08-17T21:50:32.447Z,12.35
2022-08-17T21:53:11.332Z,10.70
2022-08-17T21:55:49.341Z,8.98
2022-08-17T21:58:40.690Z,8.43
2022-08-17T22:01:21.972Z,10.60
2022-08-17T22:04:16.012Z,10.93
2022-08-17T22:07:05.942Z,9.50
2022-08-17T22:09:49.109Z,15.10
2022-08-17T22:12:27.047Z,10.63
2022-08-17T22:15:21.245Z,9.50
2022-08-17T22:18:09.949Z,7.10
2022-08-17T22:20:53.515Z,8.35
2022-08-17T22:23:51.099Z,10.57
2022-08-17T22:26:49.324Z,8.75
2022-08-17T22:29:53.149Z,7.40
2022-08-17T22:32:48.326Z,6.18
2022-08-17T22:35:44.080Z,13.55
2022-08-17T22:38:30.349Z,13.70
2022-08-17T22:41:41.233Z,8.38
2022-08-17T22:44:58.169Z,10.75
2022-08-17T22:47:48.908Z,13.23
2022-08-17T22:50:35.132Z,9.07
2022-08-17T22:53:40.451Z,13.05
2022-08-17T22:56:40.987Z,8.32
2022-08-17T22:59:23.526Z,6.75
2022-08-17T23:02:13.170Z,9.05
2022-08-17T23:04:53.480Z,10.38
2022-08-17T23:07:31.724Z,14.52
2022-08-17T23:10:16.327Z,11.18
2022-08-17T23:12:57.503Z,8.85
2022-08-17T23:15:39.166Z,10.73
2022-08-17T23:18:17.340Z,14.60
2022-08-17T23:21:01.047Z,10.05
2022-08-17T23:23:51.615Z,8.82
2022-08-17T23:26:26.478Z,8.57
2022-08-17T23:29:07.707Z,9.02
2022-08-17T23:31:43.463Z,9.63
2022-08-17T23:34:20.389Z,9.38
2022-08-17T23:37:05.389Z,7.00
2022-08-17T23:39:47.741Z,8.07
2022-08-17T23:42:26.360Z,9.48
2022-08-17T23:45:10.246Z,12.07
2022-08-17T23:47:53.235Z,7.25
2022-08-17T23:50:41.040Z,9.05
2022-08-17T23:53:12.980Z,10.80
2022-08-17T23:56:06.886Z,9.57
2022-08-17T23:58:55.376Z,13.57
